sensor_id;sensor_type;location;lat;lon;timestamp;P1;durP1;ratioP1;P2;durP2;ratioP2
25938;SDS011;13739;51.172;4.466;2022-10-16T00:02:04;2.72;;;1.40;;
25938;SDS011;13739;51.172;4.466;2022-10-16T00:04:29;4.72;;;1.35;;
25938;SDS011;13739;51.172;4.466;2022-10-16T00:06:55;2.78;;;1.10;;
25938;SDS011;13739;51.172;4.466;2022-10-16T00:09:20;2.75;;;1.10;;
25938;SDS011;13739;51.172;4.466;2022-10-16T00:11:46;2.13;;;1.05;;
25938;SDS011;13739;51.172;4.466;2022-10-16T00:14:13;1.65;;;1.13;;
25938;SDS011;13739;51.172;4.466;2022-10-16T00:16:39;2.38;;;1.40;;
25938;SDS011;13739;51.172;4.466;2022-10-16T00:19:05;2.63;;;1.40;;
25938;SDS011;13739;51.172;4.466;2022-10-16T00:21:32;2.83;;;1.00;;
25938;SDS011;13739;51.172;4.466;2022-10-16T00:23:59;7.85;;;1.42;;
25938;SDS011;13739;51.172;4.466;2022-10-16T00:26:28;3.70;;;1.40;;
25938;SDS011;13739;51.172;4.466;2022-10-16T00:28:55;2.75;;;1.27;;
25938;SDS011;13739;51.172;4.466;2022-10-16T00:31:21;2.78;;;1.13;;
25938;SDS011;13739;51.172;4.466;2022-10-16T00:33:47;3.20;;;0.90;;
25938;SDS011;13739;51.172;4.466;2022-10-16T00:36:15;1.70;;;1.20;;
25938;SDS011;13739;51.172;4.466;2022-10-16T00:38:42;3.10;;;1.17;;
25938;SDS011;13739;51.172;4.466;2022-10-16T00:41:10;2.20;;;1.05;;
25938;SDS011;13739;51.172;4.466;2022-10-16T00:49:07;3.95;;;1.10;;
25938;SDS011;13739;51.172;4.466;2022-10-16T00:51:42;1.90;;;1.33;;
25938;SDS011;13739;51.172;4.466;2022-10-16T00:54:14;3.42;;;0.93;;
25938;SDS011;13739;51.172;4.466;2022-10-16T00:56:46;4.35;;;0.93;;
25938;SDS011;13739;51.172;4.466;2022-10-16T00:59:24;2.42;;;0.90;;
25938;SDS011;13739;51.172;4.466;2022-10-16T01:01:53;2.40;;;0.93;;
25938;SDS011;13739;51.172;4.466;2022-10-16T01:04:19;1.15;;;0.80;;
25938;SDS011;13739;51.172;4.466;2022-10-16T01:06:49;2.33;;;1.15;;
25938;SDS011;13739;51.172;4.466;2022-10-16T01:09:23;1.73;;;1.00;;
25938;SDS011;13739;51.172;4.466;2022-10-16T01:12:06;4.22;;;1.10;;
25938;SDS011;13739;51.172;4.466;2022-10-16T01:22:19;2.13;;;1.20;;
25938;SDS011;13739;51.172;4.466;2022-10-16T01:24:48;2.08;;;1.08;;
25938;SDS011;13739;51.172;4.466;2022-10-16T01:27:20;1.40;;;0.90;;
25938;SDS011;13739;51.172;4.466;2022-10-16T01:29:56;2.28;;;1.00;;
25938;SDS011;13739;51.172;4.466;2022-10-16T01:32:44;1.90;;;1.10;;
25938;SDS011;13739;51.172;4.466;2022-10-16T01:35:18;3.83;;;1.20;;
25938;SDS011;13739;51.172;4.466;2022-10-16T01:40:36;3.65;;;0.95;;
25938;SDS011;13739;51.172;4.466;2022-10-16T01:43:15;1.13;;;0.80;;
25938;SDS011;13739;51.172;4.466;2022-10-16T01:45:47;1.27;;;0.98;;
25938;SDS011;13739;51.172;4.466;2022-10-16T01:48:14;1.00;;;0.80;;
25938;SDS011;13739;51.172;4.466;2022-10-16T01:50:44;2.08;;;0.90;;
25938;SDS011;13739;51.172;4.466;2022-10-16T01:53:22;2.25;;;1.00;;
25938;SDS011;13739;51.172;4.466;2022-10-16T01:55:50;2.20;;;1.00;;
25938;SDS011;13739;51.172;4.466;2022-10-16T01:58:19;2.05;;;0.85;;
25938;SDS011;13739;51.172;4.466;2022-10-16T02:00:47;2.60;;;1.00;;
25938;SDS011;13739;51.172;4.466;2022-10-16T02:03:13;1.85;;;0.90;;
25938;SDS011;13739;51.172;4.466;2022-10-16T02:05:53;2.95;;;1.27;;
25938;SDS011;13739;51.172;4.466;2022-10-16T02:08:22;2.33;;;1.05;;
25938;SDS011;13739;51.172;4.466;2022-10-16T02:10:49;2.63;;;1.30;;
25938;SDS011;13739;51.172;4.466;2022-10-16T02:13:22;6.40;;;1.50;;
25938;SDS011;13739;51.172;4.466;2022-10-16T02:15:52;2.83;;;1.13;;
25938;SDS011;13739;51.172;4.466;2022-10-16T02:18:18;2.58;;;1.20;;
25938;SDS011;13739;51.172;4.466;2022-10-16T02:20:55;3.72;;;1.17;;
25938;SDS011;13739;51.172;4.466;2022-10-16T02:26:39;2.28;;;1.08;;
25938;SDS011;13739;51.172;4.466;2022-10-16T02:29:16;3.17;;;1.25;;
25938;SDS011;13739;51.172;4.466;2022-10-16T02:31:48;2.33;;;1.27;;
25938;SDS011;13739;51.172;4.466;2022-10-16T02:34:16;2.47;;;1.15;;
25938;SDS011;13739;51.172;4.466;2022-10-16T02:36:45;2.15;;;1.48;;
25938;SDS011;13739;51.172;4.466;2022-10-16T02:39:12;3.75;;;1.40;;
25938;SDS011;13739;51.172;4.466;2022-10-16T02:41:39;4.35;;;1.17;;
25938;SDS011;13739;51.172;4.466;2022-10-16T02:44:05;1.88;;;1.30;;
25938;SDS011;13739;51.172;4.466;2022-10-16T02:46:30;1.98;;;1.10;;
25938;SDS011;13739;51.172;4.466;2022-10-16T02:48:56;2.70;;;1.27;;
25938;SDS011;13739;51.172;4.466;2022-10-16T02:51:21;3.05;;;1.33;;
25938;SDS011;13739;51.172;4.466;2022-10-16T02:53:47;3.13;;;1.30;;
25938;SDS011;13739;51.172;4.466;2022-10-16T02:56:13;4.40;;;1.70;;
25938;SDS011;13739;51.172;4.466;2022-10-16T02:58:38;2.92;;;1.50;;
25938;SDS011;13739;51.172;4.466;2022-10-16T03:01:04;2.35;;;1.40;;
25938;SDS011;13739;51.172;4.466;2022-10-16T03:03:29;3.78;;;1.52;;
25938;SDS011;13739;51.172;4.466;2022-10-16T03:05:55;4.03;;;1.40;;
25938;SDS011;13739;51.172;4.466;2022-10-16T03:08:20;5.70;;;1.45;;
25938;SDS011;13739;51.172;4.466;2022-10-16T03:10:48;3.53;;;1.50;;
25938;SDS011;13739;51.172;4.466;2022-10-16T03:13:14;2.90;;;1.60;;
25938;SDS011;13739;51.172;4.466;2022-10-16T03:15:40;4.80;;;1.63;;
25938;SDS011;13739;51.172;4.466;2022-10-16T03:18:06;2.58;;;1.40;;
25938;SDS011;13739;51.172;4.466;2022-10-16T03:20:32;2.90;;;1.23;;
25938;SDS011;13739;51.172;4.466;2022-10-16T03:22:58;3.78;;;1.20;;
25938;SDS011;13739;51.172;4.466;2022-10-16T03:25:24;7.00;;;1.30;;
25938;SDS011;13739;51.172;4.466;2022-10-16T03:27:49;2.00;;;1.30;;
25938;SDS011;13739;51.172;4.466;2022-10-16T03:30:15;3.17;;;1.65;;
25938;SDS011;13739;51.172;4.466;2022-10-16T03:32:41;4.15;;;1.50;;
25938;SDS011;13739;51.172;4.466;2022-10-16T03:35:08;3.83;;;1.77;;
25938;SDS011;13739;51.172;4.466;2022-10-16T03:37:34;2.63;;;1.30;;
25938;SDS011;13739;51.172;4.466;2022-10-16T03:39:59;6.32;;;1.55;;
25938;SDS011;13739;51.172;4.466;2022-10-16T03:42:25;3.90;;;1.75;;
25938;SDS011;13739;51.172;4.466;2022-10-16T03:44:51;2.80;;;1.50;;
25938;SDS011;13739;51.172;4.466;2022-10-16T03:47:16;3.28;;;1.63;;
25938;SDS011;13739;51.172;4.466;2022-10-16T03:49:46;2.38;;;1.30;;
25938;SDS011;13739;51.172;4.466;2022-10-16T03:52:12;5.65;;;1.80;;
25938;SDS011;13739;51.172;4.466;2022-10-16T03:54:38;6.30;;;1.48;;
25938;SDS011;13739;51.172;4.466;2022-10-16T03:57:04;3.80;;;1.63;;
25938;SDS011;13739;51.172;4.466;2022-10-16T03:59:29;6.30;;;1.70;;
25938;SDS011;13739;51.172;4.466;2022-10-16T04:01:55;3.45;;;1.48;;
25938;SDS011;13739;51.172;4.466;2022-10-16T04:04:21;2.92;;;1.42;;
25938;SDS011;13739;51.172;4.466;2022-10-16T04:06:46;3.58;;;2.08;;
25938;SDS011;13739;51.172;4.466;2022-10-16T04:09:12;4.28;;;1.42;;
25938;SDS011;13739;51.172;4.466;2022-10-16T04:11:37;2.33;;;1.23;;
25938;SDS011;13739;51.172;4.466;2022-10-16T04:14:03;2.83;;;1.42;;
25938;SDS011;13739;51.172;4.466;2022-10-16T04:16:29;3.17;;;1.60;;
25938;SDS011;13739;51.172;4.466;2022-10-16T04:18:55;3.33;;;1.50;;
25938;SDS011;13739;51.172;4.466;2022-10-16T04:21:20;7.72;;;1.85;;
25938;SDS011;13739;51.172;4.466;2022-10-16T04:23:47;2.65;;;1.50;;
25938;SDS011;13739;51.172;4.466;2022-10-16T04:26:13;2.97;;;1.27;;
25938;SDS011;13739;51.172;4.466;2022-10-16T04:28:38;3.22;;;1.50;;
25938;SDS011;13739;51.172;4.466;2022-10-16T04:31:04;3.88;;;1.85;;
25938;SDS011;13739;51.172;4.466;2022-10-16T04:33:31;5.88;;;2.28;;
25938;SDS011;13739;51.172;4.466;2022-10-16T04:35:57;4.47;;;1.70;;
25938;SDS011;13739;51.172;4.466;2022-10-16T04:38:24;4.50;;;2.30;;
25938;SDS011;13739;51.172;4.466;2022-10-16T04:40:50;2.22;;;1.33;;
25938;SDS011;13739;51.172;4.466;2022-10-16T04:43:16;2.88;;;1.33;;
25938;SDS011;13739;51.172;4.466;2022-10-16T04:45:42;2.80;;;1.45;;
25938;SDS011;13739;51.172;4.466;2022-10-16T04:48:07;4.78;;;1.85;;
25938;SDS011;13739;51.172;4.466;2022-10-16T04:50:33;3.47;;;2.00;;
25938;SDS011;13739;51.172;4.466;2022-10-16T04:52:59;2.28;;;1.45;;
25938;SDS011;13739;51.172;4.466;2022-10-16T04:55:24;5.68;;;1.83;;
25938;SDS011;13739;51.172;4.466;2022-10-16T04:57:50;3.95;;;1.67;;
25938;SDS011;13739;51.172;4.466;2022-10-16T05:00:15;3.95;;;1.77;;
25938;SDS011;13739;51.172;4.466;2022-10-16T05:02:41;3.58;;;1.58;;
25938;SDS011;13739;51.172;4.466;2022-10-16T05:05:07;4.28;;;1.85;;
25938;SDS011;13739;51.172;4.466;2022-10-16T05:07:32;4.65;;;1.80;;
25938;SDS011;13739;51.172;4.466;2022-10-16T05:09:58;2.80;;;1.30;;
25938;SDS011;13739;51.172;4.466;2022-10-16T05:12:23;3.92;;;1.60;;
25938;SDS011;13739;51.172;4.466;2022-10-16T05:14:49;2.83;;;1.60;;
25938;SDS011;13739;51.172;4.466;2022-10-16T05:17:15;3.30;;;1.40;;
25938;SDS011;13739;51.172;4.466;2022-10-16T05:19:40;2.95;;;1.67;;
25938;SDS011;13739;51.172;4.466;2022-10-16T05:22:06;3.50;;;1.80;;
25938;SDS011;13739;51.172;4.466;2022-10-16T05:24:32;5.97;;;2.47;;
25938;SDS011;13739;51.172;4.466;2022-10-16T05:26:57;2.78;;;1.63;;
25938;SDS011;13739;51.172;4.466;2022-10-16T05:29:23;3.42;;;1.85;;
25938;SDS011;13739;51.172;4.466;2022-10-16T05:31:52;3.97;;;1.60;;
25938;SDS011;13739;51.172;4.466;2022-10-16T05:34:18;4.13;;;1.67;;
25938;SDS011;13739;51.172;4.466;2022-10-16T05:36:45;3.88;;;1.70;;
25938;SDS011;13739;51.172;4.466;2022-10-16T05:39:10;3.50;;;1.80;;
25938;SDS011;13739;51.172;4.466;2022-10-16T05:41:36;3.55;;;1.80;;
25938;SDS011;13739;51.172;4.466;2022-10-16T05:44:05;4.88;;;1.88;;
25938;SDS011;13739;51.172;4.466;2022-10-16T05:46:31;3.90;;;1.70;;
25938;SDS011;13739;51.172;4.466;2022-10-16T05:48:57;4.97;;;1.98;;
25938;SDS011;13739;51.172;4.466;2022-10-16T05:51:23;4.70;;;2.00;;
25938;SDS011;13739;51.172;4.466;2022-10-16T05:53:49;4.68;;;1.75;;
25938;SDS011;13739;51.172;4.466;2022-10-16T05:56:15;6.53;;;1.55;;
25938;SDS011;13739;51.172;4.466;2022-10-16T05:58:41;2.42;;;1.60;;
25938;SDS011;13739;51.172;4.466;2022-10-16T06:01:10;6.88;;;2.08;;
25938;SDS011;13739;51.172;4.466;2022-10-16T06:03:37;6.88;;;1.80;;
25938;SDS011;13739;51.172;4.466;2022-10-16T06:06:13;7.35;;;1.80;;
25938;SDS011;13739;51.172;4.466;2022-10-16T06:08:41;5.15;;;1.55;;
25938;SDS011;13739;51.172;4.466;2022-10-16T06:11:08;5.13;;;1.88;;
25938;SDS011;13739;51.172;4.466;2022-10-16T06:13:35;4.07;;;1.77;;
25938;SDS011;13739;51.172;4.466;2022-10-16T06:16:02;4.82;;;1.95;;
25938;SDS011;13739;51.172;4.466;2022-10-16T06:18:28;2.75;;;1.63;;
25938;SDS011;13739;51.172;4.466;2022-10-16T06:20:55;4.75;;;2.03;;
25938;SDS011;13739;51.172;4.466;2022-10-16T06:23:21;3.85;;;1.67;;
25938;SDS011;13739;51.172;4.466;2022-10-16T06:25:47;4.40;;;1.80;;
25938;SDS011;13739;51.172;4.466;2022-10-16T06:28:13;5.25;;;1.92;;
25938;SDS011;13739;51.172;4.466;2022-10-16T06:30:39;4.50;;;1.90;;
25938;SDS011;13739;51.172;4.466;2022-10-16T06:33:05;5.65;;;1.63;;
25938;SDS011;13739;51.172;4.466;2022-10-16T06:35:30;5.68;;;1.77;;
25938;SDS011;13739;51.172;4.466;2022-10-16T06:37:57;6.50;;;2.17;;
25938;SDS011;13739;51.172;4.466;2022-10-16T06:40:23;3.25;;;1.60;;
25938;SDS011;13739;51.172;4.466;2022-10-16T06:42:48;5.07;;;1.67;;
25938;SDS011;13739;51.172;4.466;2022-10-16T06:45:15;3.88;;;1.77;;
25938;SDS011;13739;51.172;4.466;2022-10-16T06:47:40;4.32;;;1.63;;
25938;SDS011;13739;51.172;4.466;2022-10-16T06:50:06;4.78;;;1.98;;
25938;SDS011;13739;51.172;4.466;2022-10-16T06:52:33;2.78;;;1.70;;
25938;SDS011;13739;51.172;4.466;2022-10-16T06:54:59;4.05;;;2.38;;
25938;SDS011;13739;51.172;4.466;2022-10-16T06:57:25;2.72;;;1.70;;
25938;SDS011;13739;51.172;4.466;2022-10-16T06:59:51;5.68;;;1.67;;
25938;SDS011;13739;51.172;4.466;2022-10-16T07:02:16;5.30;;;1.98;;
25938;SDS011;13739;51.172;4.466;2022-10-16T07:04:42;5.93;;;1.80;;
25938;SDS011;13739;51.172;4.466;2022-10-16T07:07:08;2.53;;;1.63;;
25938;SDS011;13739;51.172;4.466;2022-10-16T07:09:33;4.65;;;1.95;;
25938;SDS011;13739;51.172;4.466;2022-10-16T07:11:59;9.68;;;2.45;;
25938;SDS011;13739;51.172;4.466;2022-10-16T07:14:24;5.13;;;2.38;;
25938;SDS011;13739;51.172;4.466;2022-10-16T07:16:50;5.20;;;1.98;;
25938;SDS011;13739;51.172;4.466;2022-10-16T07:19:16;4.90;;;2.10;;
25938;SDS011;13739;51.172;4.466;2022-10-16T07:21:42;4.30;;;1.58;;
25938;SDS011;13739;51.172;4.466;2022-10-16T07:24:13;6.28;;;1.63;;
25938;SDS011;13739;51.172;4.466;2022-10-16T07:26:41;5.63;;;1.85;;
25938;SDS011;13739;51.172;4.466;2022-10-16T07:29:11;5.13;;;1.48;;
25938;SDS011;13739;51.172;4.466;2022-10-16T07:31:39;3.53;;;1.63;;
25938;SDS011;13739;51.172;4.466;2022-10-16T07:34:04;3.80;;;1.70;;
25938;SDS011;13739;51.172;4.466;2022-10-16T07:36:30;2.28;;;1.55;;
25938;SDS011;13739;51.172;4.466;2022-10-16T07:38:56;7.13;;;1.67;;
25938;SDS011;13739;51.172;4.466;2022-10-16T07:41:21;3.33;;;1.60;;
25938;SDS011;13739;51.172;4.466;2022-10-16T07:43:48;7.30;;;1.73;;
25938;SDS011;13739;51.172;4.466;2022-10-16T07:46:15;5.15;;;2.40;;
25938;SDS011;13739;51.172;4.466;2022-10-16T07:48:41;3.00;;;1.50;;
25938;SDS011;13739;51.172;4.466;2022-10-16T07:51:10;4.13;;;1.58;;
25938;SDS011;13739;51.172;4.466;2022-10-16T07:53:37;2.92;;;1.60;;
25938;SDS011;13739;51.172;4.466;2022-10-16T07:56:03;2.38;;;1.42;;
25938;SDS011;13739;51.172;4.466;2022-10-16T07:58:31;5.88;;;1.70;;
25938;SDS011;13739;51.172;4.466;2022-10-16T08:00:57;5.22;;;1.88;;
25938;SDS011;13739;51.172;4.466;2022-10-16T08:03:24;3.30;;;1.50;;
25938;SDS011;13739;51.172;4.466;2022-10-16T08:05:50;4.20;;;1.98;;
25938;SDS011;13739;51.172;4.466;2022-10-16T08:08:17;2.60;;;1.48;;
25938;SDS011;13739;51.172;4.466;2022-10-16T08:10:43;4.93;;;2.33;;
25938;SDS011;13739;51.172;4.466;2022-10-16T08:13:09;4.13;;;1.20;;
25938;SDS011;13739;51.172;4.466;2022-10-16T08:15:35;3.33;;;1.50;;
25938;SDS011;13739;51.172;4.466;2022-10-16T08:18:02;3.13;;;1.05;;
25938;SDS011;13739;51.172;4.466;2022-10-16T08:20:29;6.78;;;1.85;;
25938;SDS011;13739;51.172;4.466;2022-10-16T08:22:56;7.28;;;1.60;;
25938;SDS011;13739;51.172;4.466;2022-10-16T08:25:22;6.80;;;1.50;;
25938;SDS011;13739;51.172;4.466;2022-10-16T08:27:48;5.32;;;1.80;;
25938;SDS011;13739;51.172;4.466;2022-10-16T08:30:15;5.95;;;1.52;;
25938;SDS011;13739;51.172;4.466;2022-10-16T08:32:42;5.38;;;1.35;;
25938;SDS011;13739;51.172;4.466;2022-10-16T08:35:08;4.47;;;1.30;;
25938;SDS011;13739;51.172;4.466;2022-10-16T08:37:35;3.80;;;1.52;;
25938;SDS011;13739;51.172;4.466;2022-10-16T08:40:01;3.00;;;1.15;;
25938;SDS011;13739;51.172;4.466;2022-10-16T08:42:31;2.47;;;1.38;;
25938;SDS011;13739;51.172;4.466;2022-10-16T08:45:21;7.68;;;1.50;;
25938;SDS011;13739;51.172;4.466;2022-10-16T08:51:10;6.88;;;1.42;;
25938;SDS011;13739;51.172;4.466;2022-10-16T08:53:55;4.55;;;1.30;;
25938;SDS011;13739;51.172;4.466;2022-10-16T08:56:23;5.40;;;1.55;;
25938;SDS011;13739;51.172;4.466;2022-10-16T08:58:49;4.65;;;1.38;;
25938;SDS011;13739;51.172;4.466;2022-10-16T09:01:17;9.25;;;1.42;;
25938;SDS011;13739;51.172;4.466;2022-10-16T09:11:38;5.10;;;1.25;;
25938;SDS011;13739;51.172;4.466;2022-10-16T09:17:04;7.72;;;1.23;;
25938;SDS011;13739;51.172;4.466;2022-10-16T09:19:56;4.13;;;0.88;;
25938;SDS011;13739;51.172;4.466;2022-10-16T09:22:32;6.88;;;1.38;;
25938;SDS011;13739;51.172;4.466;2022-10-16T09:24:59;6.05;;;1.17;;
25938;SDS011;13739;51.172;4.466;2022-10-16T09:27:34;5.45;;;1.15;;
25938;SDS011;13739;51.172;4.466;2022-10-16T09:30:01;3.65;;;0.93;;
25938;SDS011;13739;51.172;4.466;2022-10-16T09:32:31;5.55;;;1.20;;
25938;SDS011;13739;51.172;4.466;2022-10-16T09:34:58;6.65;;;1.75;;
25938;SDS011;13739;51.172;4.466;2022-10-16T09:37:24;5.10;;;1.00;;
25938;SDS011;13739;51.172;4.466;2022-10-16T09:39:53;2.78;;;0.95;;
25938;SDS011;13739;51.172;4.466;2022-10-16T09:42:20;3.65;;;1.70;;
25938;SDS011;13739;51.172;4.466;2022-10-16T09:44:47;2.80;;;1.00;;
25938;SDS011;13739;51.172;4.466;2022-10-16T09:47:19;5.78;;;1.20;;
25938;SDS011;13739;51.172;4.466;2022-10-16T09:49:54;3.75;;;1.05;;
25938;SDS011;13739;51.172;4.466;2022-10-16T09:52:29;4.18;;;1.00;;
25938;SDS011;13739;51.172;4.466;2022-10-16T09:54:56;5.72;;;1.33;;
25938;SDS011;13739;51.172;4.466;2022-10-16T09:57:48;4.53;;;1.10;;
25938;SDS011;13739;51.172;4.466;2022-10-16T10:00:20;7.32;;;1.10;;
25938;SDS011;13739;51.172;4.466;2022-10-16T10:02:48;4.80;;;1.30;;
25938;SDS011;13739;51.172;4.466;2022-10-16T10:05:18;11.10;;;1.45;;
25938;SDS011;13739;51.172;4.466;2022-10-16T10:07:57;2.85;;;1.20;;
25938;SDS011;13739;51.172;4.466;2022-10-16T10:10:25;2.42;;;0.90;;
25938;SDS011;13739;51.172;4.466;2022-10-16T10:12:53;11.43;;;1.25;;
25938;SDS011;13739;51.172;4.466;2022-10-16T10:15:20;5.88;;;1.33;;
25938;SDS011;13739;51.172;4.466;2022-10-16T10:17:53;5.18;;;1.25;;
25938;SDS011;13739;51.172;4.466;2022-10-16T10:20:38;6.07;;;1.55;;
25938;SDS011;13739;51.172;4.466;2022-10-16T10:23:21;5.82;;;1.27;;
25938;SDS011;13739;51.172;4.466;2022-10-16T10:28:19;4.45;;;1.17;;
25938;SDS011;13739;51.172;4.466;2022-10-16T10:38:57;6.85;;;1.30;;
25938;SDS011;13739;51.172;4.466;2022-10-16T10:41:32;4.85;;;1.23;;
25938;SDS011;13739;51.172;4.466;2022-10-16T10:44:36;5.20;;;1.02;;
25938;SDS011;13739;51.172;4.466;2022-10-16T10:53:39;8.57;;;1.35;;
25938;SDS011;13739;51.172;4.466;2022-10-16T11:01:19;5.50;;;1.20;;
25938;SDS011;13739;51.172;4.466;2022-10-16T11:06:33;4.45;;;1.10;;
25938;SDS011;13739;51.172;4.466;2022-10-16T11:14:08;7.13;;;1.13;;
25938;SDS011;13739;51.172;4.466;2022-10-16T11:16:40;5.32;;;1.00;;
25938;SDS011;13739;51.172;4.466;2022-10-16T11:27:40;3.78;;;0.90;;
25938;SDS011;13739;51.172;4.466;2022-10-16T11:30:18;4.65;;;1.50;;
25938;SDS011;13739;51.172;4.466;2022-10-16T11:35:40;8.40;;;1.00;;
25938;SDS011;13739;51.172;4.466;2022-10-16T11:40:58;4.82;;;0.88;;
25938;SDS011;13739;51.172;4.466;2022-10-16T11:43:31;3.20;;;0.90;;
25938;SDS011;13739;51.172;4.466;2022-10-16T11:46:11;4.70;;;1.05;;
25938;SDS011;13739;51.172;4.466;2022-10-16T11:48:48;4.18;;;0.80;;
25938;SDS011;13739;51.172;4.466;2022-10-16T11:51:33;6.68;;;1.02;;
25938;SDS011;13739;51.172;4.466;2022-10-16T11:54:22;6.13;;;1.80;;
25938;SDS011;13739;51.172;4.466;2022-10-16T11:57:29;2.78;;;0.82;;
25938;SDS011;13739;51.172;4.466;2022-10-16T12:08:15;3.85;;;1.08;;
25938;SDS011;13739;51.172;4.466;2022-10-16T12:10:43;3.30;;;0.70;;
25938;SDS011;13739;51.172;4.466;2022-10-16T12:16:07;3.90;;;1.08;;
25938;SDS011;13739;51.172;4.466;2022-10-16T12:18:46;7.03;;;1.67;;
25938;SDS011;13739;51.172;4.466;2022-10-16T12:21:13;3.75;;;1.00;;
25938;SDS011;13739;51.172;4.466;2022-10-16T12:26:26;5.15;;;0.95;;
25938;SDS011;13739;51.172;4.466;2022-10-16T12:29:12;6.20;;;1.17;;
25938;SDS011;13739;51.172;4.466;2022-10-16T12:31:59;3.47;;;0.75;;
25938;SDS011;13739;51.172;4.466;2022-10-16T12:36:53;3.13;;;0.80;;
25938;SDS011;13739;51.172;4.466;2022-10-16T12:39:21;1.52;;;0.80;;
25938;SDS011;13739;51.172;4.466;2022-10-16T12:41:53;3.45;;;1.05;;
25938;SDS011;13739;51.172;4.466;2022-10-16T12:44:31;3.80;;;0.90;;
25938;SDS011;13739;51.172;4.466;2022-10-16T12:46:57;2.58;;;1.00;;
25938;SDS011;13739;51.172;4.466;2022-10-16T12:49:31;5.95;;;0.95;;
25938;SDS011;13739;51.172;4.466;2022-10-16T12:52:02;4.35;;;0.82;;
25938;SDS011;13739;51.172;4.466;2022-10-16T12:54:29;4.68;;;1.00;;
25938;SDS011;13739;51.172;4.466;2022-10-16T13:05:51;5.47;;;0.98;;
25938;SDS011;13739;51.172;4.466;2022-10-16T13:14:24;2.25;;;0.60;;
25938;SDS011;13739;51.172;4.466;2022-10-16T13:22:32;3.33;;;0.90;;
25938;SDS011;13739;51.172;4.466;2022-10-16T13:30:27;2.33;;;0.77;;
25938;SDS011;13739;51.172;4.466;2022-10-16T13:33:04;2.53;;;0.90;;
25938;SDS011;13739;51.172;4.466;2022-10-16T13:35:37;3.92;;;0.90;;
25938;SDS011;13739;51.172;4.466;2022-10-16T13:40:48;2.47;;;0.85;;
25938;SDS011;13739;51.172;4.466;2022-10-16T13:43:31;2.65;;;0.80;;
25938;SDS011;13739;51.172;4.466;2022-10-16T13:46:04;1.85;;;0.80;;
25938;SDS011;13739;51.172;4.466;2022-10-16T13:48:31;4.88;;;0.80;;
25938;SDS011;13739;51.172;4.466;2022-10-16T13:51:03;2.97;;;0.68;;
25938;SDS011;13739;51.172;4.466;2022-10-16T13:53:38;4.57;;;0.60;;
25938;SDS011;13739;51.172;4.466;2022-10-16T13:56:05;2.17;;;0.50;;
25938;SDS011;13739;51.172;4.466;2022-10-16T13:58:34;4.97;;;0.70;;
25938;SDS011;13739;51.172;4.466;2022-10-16T14:01:04;3.72;;;0.73;;
25938;SDS011;13739;51.172;4.466;2022-10-16T14:03:39;1.88;;;0.50;;
25938;SDS011;13739;51.172;4.466;2022-10-16T14:06:06;2.30;;;0.80;;
25938;SDS011;13739;51.172;4.466;2022-10-16T14:08:40;0.98;;;0.50;;
25938;SDS011;13739;51.172;4.466;2022-10-16T14:11:13;4.57;;;0.90;;
25938;SDS011;13739;51.172;4.466;2022-10-16T14:13:49;3.85;;;1.02;;
25938;SDS011;13739;51.172;4.466;2022-10-16T14:16:16;1.83;;;0.60;;
25938;SDS011;13739;51.172;4.466;2022-10-16T14:19:03;1.42;;;0.68;;
25938;SDS011;13739;51.172;4.466;2022-10-16T14:21:35;3.70;;;1.00;;
25938;SDS011;13739;51.172;4.466;2022-10-16T14:24:21;2.95;;;0.75;;
25938;SDS011;13739;51.172;4.466;2022-10-16T14:26:53;3.92;;;0.90;;
25938;SDS011;13739;51.172;4.466;2022-10-16T14:29:22;4.82;;;0.63;;
25938;SDS011;13739;51.172;4.466;2022-10-16T14:32:03;2.10;;;0.70;;
25938;SDS011;13739;51.172;4.466;2022-10-16T14:34:34;4.60;;;0.88;;
25938;SDS011;13739;51.172;4.466;2022-10-16T14:37:05;9.45;;;1.77;;
25938;SDS011;13739;51.172;4.466;2022-10-16T14:39:40;5.32;;;0.80;;
25938;SDS011;13739;51.172;4.466;2022-10-16T14:42:14;1.63;;;0.60;;
25938;SDS011;13739;51.172;4.466;2022-10-16T14:44:42;2.90;;;0.85;;
25938;SDS011;13739;51.172;4.466;2022-10-16T14:47:09;4.20;;;1.00;;
25938;SDS011;13739;51.172;4.466;2022-10-16T14:49:38;2.72;;;0.60;;
25938;SDS011;13739;51.172;4.466;2022-10-16T14:52:10;3.30;;;0.75;;
25938;SDS011;13739;51.172;4.466;2022-10-16T14:54:37;1.63;;;0.70;;
25938;SDS011;13739;51.172;4.466;2022-10-16T14:57:03;3.83;;;0.75;;
25938;SDS011;13739;51.172;4.466;2022-10-16T14:59:38;2.15;;;0.80;;
25938;SDS011;13739;51.172;4.466;2022-10-16T15:02:13;3.28;;;0.60;;
25938;SDS011;13739;51.172;4.466;2022-10-16T15:04:45;4.85;;;0.90;;
25938;SDS011;13739;51.172;4.466;2022-10-16T15:07:11;3.45;;;0.90;;
25938;SDS011;13739;51.172;4.466;2022-10-16T15:09:37;2.85;;;0.80;;
25938;SDS011;13739;51.172;4.466;2022-10-16T15:12:03;2.03;;;0.70;;
25938;SDS011;13739;51.172;4.466;2022-10-16T15:14:28;3.78;;;0.70;;
25938;SDS011;13739;51.172;4.466;2022-10-16T15:16:54;5.97;;;0.77;;
25938;SDS011;13739;51.172;4.466;2022-10-16T15:19:19;2.92;;;0.60;;
25938;SDS011;13739;51.172;4.466;2022-10-16T15:21:45;7.00;;;1.20;;
25938;SDS011;13739;51.172;4.466;2022-10-16T15:24:11;3.28;;;0.70;;
25938;SDS011;13739;51.172;4.466;2022-10-16T15:26:38;2.60;;;0.88;;
25938;SDS011;13739;51.172;4.466;2022-10-16T15:29:03;2.60;;;1.15;;
25938;SDS011;13739;51.172;4.466;2022-10-16T15:31:29;3.35;;;1.30;;
25938;SDS011;13739;51.172;4.466;2022-10-16T15:33:55;4.13;;;1.27;;
25938;SDS011;13739;51.172;4.466;2022-10-16T15:36:30;4.43;;;1.60;;
25938;SDS011;13739;51.172;4.466;2022-10-16T15:38:59;6.25;;;1.85;;
25938;SDS011;13739;51.172;4.466;2022-10-16T15:41:25;4.68;;;1.80;;
25938;SDS011;13739;51.172;4.466;2022-10-16T15:43:51;3.40;;;1.30;;
25938;SDS011;13739;51.172;4.466;2022-10-16T15:46:18;3.17;;;1.48;;
25938;SDS011;13739;51.172;4.466;2022-10-16T15:48:46;4.20;;;1.60;;
25938;SDS011;13739;51.172;4.466;2022-10-16T15:51:12;1.73;;;1.13;;
25938;SDS011;13739;51.172;4.466;2022-10-16T15:53:39;2.42;;;1.00;;
25938;SDS011;13739;51.172;4.466;2022-10-16T15:56:05;1.75;;;0.80;;
25938;SDS011;13739;51.172;4.466;2022-10-16T15:58:32;4.65;;;2.45;;
25938;SDS011;13739;51.172;4.466;2022-10-16T16:00:58;5.45;;;2.20;;
25938;SDS011;13739;51.172;4.466;2022-10-16T16:03:28;3.83;;;2.20;;
25938;SDS011;13739;51.172;4.466;2022-10-16T16:05:55;5.13;;;2.67;;
25938;SDS011;13739;51.172;4.466;2022-10-16T16:08:20;4.47;;;2.67;;
25938;SDS011;13739;51.172;4.466;2022-10-16T16:10:59;6.43;;;2.10;;
25938;SDS011;13739;51.172;4.466;2022-10-16T16:13:35;4.18;;;1.92;;
25938;SDS011;13739;51.172;4.466;2022-10-16T16:16:07;3.67;;;1.88;;
25938;SDS011;13739;51.172;4.466;2022-10-16T16:18:38;4.88;;;2.38;;
25938;SDS011;13739;51.172;4.466;2022-10-16T16:21:04;6.30;;;2.80;;
25938;SDS011;13739;51.172;4.466;2022-10-16T16:23:30;6.00;;;2.10;;
25938;SDS011;13739;51.172;4.466;2022-10-16T16:26:07;4.43;;;1.98;;
25938;SDS011;13739;51.172;4.466;2022-10-16T16:28:40;4.85;;;2.10;;
25938;SDS011;13739;51.172;4.466;2022-10-16T16:31:07;6.40;;;2.90;;
25938;SDS011;13739;51.172;4.466;2022-10-16T16:33:32;8.60;;;3.28;;
25938;SDS011;13739;51.172;4.466;2022-10-16T16:35:59;15.68;;;5.70;;
25938;SDS011;13739;51.172;4.466;2022-10-16T16:38:26;14.50;;;6.72;;
25938;SDS011;13739;51.172;4.466;2022-10-16T16:40:53;19.48;;;8.02;;
25938;SDS011;13739;51.172;4.466;2022-10-16T16:43:19;7.30;;;3.03;;
25938;SDS011;13739;51.172;4.466;2022-10-16T16:45:49;9.05;;;3.00;;
25938;SDS011;13739;51.172;4.466;2022-10-16T16:48:15;5.40;;;2.85;;
25938;SDS011;13739;51.172;4.466;2022-10-16T16:50:40;9.50;;;2.55;;
25938;SDS011;13739;51.172;4.466;2022-10-16T16:53:06;13.23;;;4.38;;
25938;SDS011;13739;51.172;4.466;2022-10-16T16:55:32;7.55;;;3.40;;
25938;SDS011;13739;51.172;4.466;2022-10-16T16:57:58;8.55;;;4.30;;
25938;SDS011;13739;51.172;4.466;2022-10-16T17:00:24;9.05;;;3.80;;
25938;SDS011;13739;51.172;4.466;2022-10-16T17:02:49;6.50;;;3.45;;